Time;durP1;ratioP1;P1;durP2;ratioP2;P2;SDS_P1;SDS_P2;PMS_P1;PMS_P2;Temp;Humidity;BMP_temperature;BMP_pressure;BME280_temperature;BME280_humidity;BME280_pressure;Samples;Min_cycle;Max_cycle;Signal;HPM_P1;HPM_P2
2022/05/18 00:00:18;;;;;;;8.10;6.95;;;16.90;99.90;;;;;;4808009;29;20239;-82
2022/05/18 00:02:44;;;;;;;8.23;6.97;;;16.90;99.90;;;;;;4807909;29;20214;-82
2022/05/18 00:05:10;;;;;;;11.18;7.78;;;16.90;99.90;;;;;;4808142;29;20197;-82
2022/05/18 00:07:36;;;;;;;9.02;7.70;;;16.90;99.90;;;;;;4806437;29;20201;-82
2022/05/18 00:10:02;;;;;;;10.05;7.72;;;16.90;99.90;;;;;;4807849;29;20205;-81
2022/05/18 00:12:28;;;;;;;7.72;6.90;;;16.90;99.90;;;;;;4807792;29;20253;-82
2022/05/18 00:14:54;;;;;;;9.07;7.25;;;16.80;99.90;;;;;;4807707;29;20357;-82
2022/05/18 00:17:20;;;;;;;10.27;7.65;;;16.80;99.90;;;;;;4807706;29;20186;-81
2022/05/18 00:19:45;;;;;;;8.80;7.18;;;16.80;99.90;;;;;;4807930;29;20528;-81
2022/05/18 00:22:11;;;;;;;8.82;7.43;;;16.80;99.90;;;;;;4806135;29;20214;-82
2022/05/18 00:24:37;;;;;;;10.35;7.00;;;16.80;99.90;;;;;;4806223;29;20186;-82
2022/05/18 00:27:03;;;;;;;10.93;8.23;;;16.80;99.90;;;;;;4806322;29;20531;-81
2022/05/18 00:29:34;;;;;;;10.25;8.45;;;16.70;99.90;;;;;;4807655;29;20174;-82
2022/05/18 00:32:00;;;;;;;9.15;7.60;;;16.70;99.90;;;;;;5203145;24;20301;-82
2022/05/18 00:34:26;;;;;;;10.57;8.23;;;16.70;99.90;;;;;;4784551;29;20211;-82
2022/05/18 00:36:52;;;;;;;10.80;8.02;;;16.60;99.90;;;;;;4789255;30;20230;-82
2022/05/18 00:39:19;;;;;;;10.35;7.80;;;16.60;99.90;;;;;;4788241;29;20195;-82
2022/05/18 00:41:45;;;;;;;11.35;8.50;;;16.60;99.90;;;;;;4789244;29;20639;-82
2022/05/18 00:44:11;;;;;;;12.63;7.55;;;16.60;99.90;;;;;;4788161;29;20203;-83
2022/05/18 00:46:37;;;;;;;8.68;7.60;;;16.60;99.90;;;;;;4789401;29;20178;-83
2022/05/18 00:49:06;;;;;;;9.70;8.02;;;16.60;99.90;;;;;;4789371;30;20285;-82
2022/05/18 00:51:36;;;;;;;12.02;7.93;;;16.60;99.90;;;;;;4796244;29;20182;-82
2022/05/18 00:54:27;;;;;;;14.20;7.93;;;16.50;99.90;;;;;;4806846;29;20218;-81
2022/05/18 00:56:58;;;;;;;9.85;7.93;;;16.50;99.90;;;;;;4807243;29;20182;-82
2022/05/18 00:59:31;;;;;;;9.50;8.02;;;16.50;99.90;;;;;;4807307;29;20186;-82
2022/05/18 01:02:00;;;;;;;11.35;8.15;;;16.50;99.90;;;;;;4807103;29;20658;-82
2022/05/18 01:04:26;;;;;;;7.82;6.80;;;16.50;99.90;;;;;;4807245;29;20265;-82
2022/05/18 01:07:04;;;;;;;10.02;7.85;;;16.50;99.90;;;;;;4812029;29;20186;-82
2022/05/18 01:09:35;;;;;;;9.70;7.55;;;16.50;99.90;;;;;;4813218;29;20808;-82
2022/05/18 01:12:02;;;;;;;11.07;7.65;;;16.50;99.90;;;;;;4813508;29;20178;-82
2022/05/18 01:14:32;;;;;;;10.57;7.53;;;16.50;99.90;;;;;;4813091;29;20182;-82
2022/05/18 01:16:58;;;;;;;9.93;7.70;;;16.50;99.90;;;;;;4813149;29;20179;-82
2022/05/18 01:19:36;;;;;;;12.95;7.45;;;16.50;99.90;;;;;;4813045;29;20190;-82
2022/05/18 01:22:22;;;;;;;12.50;7.45;;;16.40;99.90;;;;;;4813179;29;20534;-82
2022/05/18 01:25:06;;;;;;;11.40;8.48;;;16.40;99.90;;;;;;4812513;29;20201;-82
2022/05/18 01:27:31;;;;;;;9.40;7.75;;;16.40;99.90;;;;;;4811779;29;20190;-82
2022/05/18 01:29:57;;;;;;;9.93;7.70;;;16.40;99.90;;;;;;4813093;29;20261;-82
2022/05/18 01:32:23;;;;;;;9.90;7.00;;;16.40;99.90;;;;;;4812917;29;20226;-82
2022/05/18 01:34:49;;;;;;;12.13;7.78;;;16.40;99.90;;;;;;4812907;29;20218;-83
2022/05/18 01:37:16;;;;;;;10.93;8.43;;;16.40;99.90;;;;;;4809964;29;20190;-81
2022/05/18 01:40:08;;;;;;;11.68;8.35;;;16.40;99.90;;;;;;4811615;29;20182;-82
2022/05/18 01:42:37;;;;;;;9.30;6.97;;;16.30;99.90;;;;;;4812777;29;20206;-82
2022/05/18 01:45:03;;;;;;;10.68;7.50;;;16.30;99.90;;;;;;4812789;29;20236;-82
2022/05/18 01:47:34;;;;;;;8.45;7.32;;;16.30;99.90;;;;;;4813046;29;20183;-82
2022/05/18 01:50:03;;;;;;;9.02;8.02;;;16.30;99.90;;;;;;4812510;29;20607;-82
2022/05/18 01:52:29;;;;;;;8.75;7.63;;;16.30;99.90;;;;;;4812437;29;20658;-82
2022/05/18 01:54:54;;;;;;;8.52;7.63;;;16.30;99.90;;;;;;4812691;29;20208;-82
2022/05/18 01:57:20;;;;;;;8.05;7.15;;;16.30;99.90;;;;;;4812870;29;20182;-82
2022/05/18 01:59:46;;;;;;;10.07;7.78;;;16.30;99.90;;;;;;4812807;29;20273;-82
2022/05/18 02:02:12;;;;;;;10.32;7.70;;;16.30;99.90;;;;;;4812765;29;20226;-82
2022/05/18 02:04:39;;;;;;;11.95;7.53;;;16.30;99.90;;;;;;4812592;29;20171;-83
2022/05/18 02:07:05;;;;;;;9.43;7.55;;;16.20;99.90;;;;;;4812402;29;20186;-82
2022/05/18 02:09:31;;;;;;;8.35;7.55;;;16.20;99.90;;;;;;4812814;29;20193;-82
2022/05/18 02:11:57;;;;;;;7.78;6.95;;;16.20;99.90;;;;;;4811588;29;20187;-82
2022/05/18 02:14:24;;;;;;;9.82;7.13;;;16.20;99.90;;;;;;4812502;29;20261;-83
2022/05/18 02:16:50;;;;;;;8.50;6.78;;;16.10;99.90;;;;;;4811250;29;20193;-83
2022/05/18 02:19:16;;;;;;;8.00;7.20;;;16.10;99.90;;;;;;4809681;29;20183;-82
2022/05/18 02:21:42;;;;;;;8.68;7.05;;;16.10;99.90;;;;;;4808169;29;20218;-82
2022/05/18 02:24:08;;;;;;;7.53;6.25;;;16.10;99.90;;;;;;4808461;29;20285;-83
2022/05/18 02:26:35;;;;;;;8.30;7.15;;;16.00;99.90;;;;;;4808656;29;20190;-82
2022/05/18 02:29:02;;;;;;;10.45;7.25;;;16.00;99.90;;;;;;4809759;29;20607;-82
2022/05/18 02:31:27;;;;;;;9.93;6.93;;;15.90;99.90;;;;;;4809577;29;20195;-82
2022/05/18 02:33:53;;;;;;;8.85;7.50;;;16.00;99.90;;;;;;4808075;29;20234;-82
2022/05/18 02:36:19;;;;;;;8.88;6.93;;;15.90;99.90;;;;;;4809452;29;20183;-82
2022/05/18 02:38:45;;;;;;;9.15;6.70;;;15.90;99.90;;;;;;4809889;29;20179;-82
2022/05/18 02:41:11;;;;;;;7.65;6.82;;;15.90;99.90;;;;;;4808273;29;20206;-82
2022/05/18 02:43:38;;;;;;;9.38;6.78;;;15.90;99.90;;;;;;4809290;29;20187;-82
2022/05/18 02:46:09;;;;;;;7.05;6.35;;;15.90;99.90;;;;;;4809340;29;20199;-82
2022/05/18 02:48:35;;;;;;;9.38;6.35;;;15.90;99.90;;;;;;4807811;29;20187;-81
2022/05/18 02:51:01;;;;;;;8.65;6.80;;;15.90;99.90;;;;;;4808012;29;20538;-82
2022/05/18 02:53:27;;;;;;;10.65;6.68;;;15.90;99.90;;;;;;4809032;29;20187;-82
2022/05/18 02:56:08;;;;;;;7.75;6.22;;;15.90;99.90;;;;;;4809231;29;20516;-82
2022/05/18 02:58:40;;;;;;;7.82;6.13;;;15.80;99.90;;;;;;4809129;29;20498;-82
2022/05/18 03:01:18;;;;;;;7.30;6.47;;;15.80;99.90;;;;;;4808915;29;20194;-82
2022/05/18 03:03:45;;;;;;;8.18;6.38;;;15.80;99.90;;;;;;4809108;29;20182;-83
2022/05/18 03:06:13;;;;;;;8.20;6.75;;;15.80;99.90;;;;;;4808950;29;20254;-82
2022/05/18 03:08:41;;;;;;;9.60;6.40;;;15.80;99.90;;;;;;4808732;29;20190;-82
2022/05/18 03:11:07;;;;;;;7.40;6.40;;;15.70;99.90;;;;;;4808927;29;20271;-82
2022/05/18 03:13:33;;;;;;;7.78;6.85;;;15.80;99.90;;;;;;4807469;29;20641;-82
2022/05/18 03:15:59;;;;;;;9.65;6.57;;;15.70;99.90;;;;;;4808946;29;20199;-82
2022/05/18 03:18:25;;;;;;;9.75;7.05;;;15.70;99.90;;;;;;4808725;29;20283;-82
2022/05/18 03:23:39;;;;;;;8.13;7.32;;;15.70;99.90;;;;;;4808624;29;20229;-82
2022/05/18 03:26:10;;;;;;;8.45;7.15;;;15.70;99.90;;;;;;4808391;29;20562;-82
2022/05/18 03:28:42;;;;;;;8.25;7.38;;;15.70;99.90;;;;;;4808457;29;20175;-82
2022/05/18 03:31:08;;;;;;;8.48;6.55;;;15.70;99.90;;;;;;4808743;29;20304;-82
2022/05/18 03:33:35;;;;;;;10.15;7.00;;;15.70;99.90;;;;;;4808281;29;20238;-82
2022/05/18 03:36:01;;;;;;;9.07;7.07;;;15.70;99.90;;;;;;4808494;29;20189;-82
2022/05/18 03:38:27;;;;;;;8.10;6.85;;;15.70;99.90;;;;;;4792984;29;20195;-82
2022/05/18 03:40:53;;;;;;;8.35;7.28;;;15.80;99.90;;;;;;4803685;29;20188;-82
2022/05/18 03:43:20;;;;;;;12.45;8.45;;;15.70;99.90;;;;;;4790320;29;20270;-81
2022/05/18 03:45:46;;;;;;;9.07;7.95;;;15.60;99.90;;;;;;4788859;29;20618;-82
2022/05/18 03:48:17;;;;;;;9.93;7.93;;;15.60;99.90;;;;;;4790271;30;20584;-82
2022/05/18 03:50:47;;;;;;;9.40;7.35;;;15.60;99.90;;;;;;4789325;30;20203;-82
2022/05/18 03:53:13;;;;;;;9.25;7.00;;;15.60;99.90;;;;;;4789520;29;20236;-82
2022/05/18 03:55:41;;;;;;;9.55;8.05;;;15.60;99.90;;;;;;4789702;29;20190;-82
2022/05/18 03:58:09;;;;;;;9.45;7.32;;;15.60;99.90;;;;;;4790227;30;20168;-82
2022/05/18 04:00:35;;;;;;;11.55;8.35;;;15.60;99.90;;;;;;4790280;29;20187;-82
2022/05/18 04:03:02;;;;;;;11.30;8.35;;;15.60;99.90;;;;;;4790035;29;20299;-81
2022/05/18 04:05:28;;;;;;;9.63;8.10;;;15.60;99.90;;;;;;4789901;29;20223;-81
2022/05/18 04:07:53;;;;;;;10.63;8.30;;;15.60;99.90;;;;;;4802150;29;20222;-82
2022/05/18 04:10:19;;;;;;;11.00;8.18;;;15.60;99.90;;;;;;4808072;29;20183;-81
2022/05/18 04:12:45;;;;;;;10.32;8.30;;;15.60;99.90;;;;;;4806651;29;20273;-81
2022/05/18 04:15:16;;;;;;;10.35;8.52;;;15.60;99.90;;;;;;4807561;29;20235;-82
2022/05/18 04:17:44;;;;;;;9.15;7.63;;;15.60;99.90;;;;;;4805100;29;20174;-82
2022/05/18 04:20:18;;;;;;;10.63;8.38;;;15.60;99.90;;;;;;4806369;29;20183;-81
2022/05/18 04:22:45;;;;;;;14.88;8.98;;;15.60;99.90;;;;;;4807426;29;20289;-81
2022/05/18 04:25:14;;;;;;;9.60;8.60;;;15.70;99.90;;;;;;4807573;29;20253;-81
2022/05/18 04:27:40;;;;;;;9.23;8.00;;;15.70;99.90;;;;;;4807775;29;20618;-81
2022/05/18 04:30:07;;;;;;;13.68;8.68;;;15.70;99.90;;;;;;4807571;29;20179;-82
2022/05/18 04:32:33;;;;;;;11.23;8.93;;;15.80;99.90;;;;;;4806193;29;20387;-82
2022/05/18 04:34:59;;;;;;;11.55;8.07;;;15.80;99.90;;;;;;4806150;29;20719;-82
2022/05/18 04:37:25;;;;;;;11.23;8.20;;;15.80;99.90;;;;;;4807176;29;20266;-81
2022/05/18 04:39:50;;;;;;;9.98;8.85;;;15.80;99.90;;;;;;4807142;29;20182;-82
2022/05/18 04:42:18;;;;;;;11.30;9.13;;;15.90;99.90;;;;;;4807468;29;20629;-82
2022/05/18 04:44:44;;;;;;;11.75;9.38;;;16.00;99.90;;;;;;4806088;29;20186;-82
2022/05/18 04:47:09;;;;;;;11.25;9.40;;;16.10;99.90;;;;;;4807547;29;20218;-82
2022/05/18 04:49:35;;;;;;;14.15;9.13;;;16.20;99.90;;;;;;4807333;29;20182;-82
2022/05/18 04:52:01;;;;;;;11.10;9.93;;;16.30;99.90;;;;;;4806982;29;20206;-81
2022/05/18 04:54:27;;;;;;;11.20;8.55;;;16.40;99.90;;;;;;4807412;29;20187;-82
2022/05/18 04:56:53;;;;;;;10.13;8.20;;;16.50;99.90;;;;;;4807737;29;20183;-81
2022/05/18 04:59:19;;;;;;;9.73;8.70;;;16.50;99.90;;;;;;4807224;29;20521;-82
2022/05/18 05:01:45;;;;;;;12.30;9.00;;;16.60;99.90;;;;;;4807106;29;20206;-81
2022/05/18 05:04:13;;;;;;;11.25;9.23;;;16.60;99.90;;;;;;4806964;29;20186;-82
2022/05/18 05:06:40;;;;;;;15.05;9.93;;;16.70;99.90;;;;;;4807429;29;20214;-82
2022/05/18 05:09:06;;;;;;;14.80;10.20;;;16.70;99.90;;;;;;4807362;29;20182;-82
2022/05/18 05:11:33;;;;;;;11.85;9.80;;;16.70;99.90;;;;;;4807164;29;20202;-81
2022/05/18 05:13:59;;;;;;;11.85;9.80;;;16.80;99.90;;;;;;4807044;29;20182;-82
2022/05/18 05:16:26;;;;;;;12.38;9.93;;;16.90;99.90;;;;;;4807186;29;20525;-82
2022/05/18 05:18:52;;;;;;;13.20;9.80;;;17.00;99.90;;;;;;4805833;29;20189;-83
2022/05/18 05:21:18;;;;;;;10.30;8.88;;;17.10;99.90;;;;;;4807162;29;20210;-82
2022/05/18 05:23:43;;;;;;;12.75;10.23;;;17.20;99.90;;;;;;4806838;29;20177;-82
2022/05/18 05:26:09;;;;;;;14.23;10.38;;;17.30;99.90;;;;;;4780039;29;20629;-82
2022/05/18 05:28:35;;;;;;;13.25;10.43;;;17.40;99.90;;;;;;4771291;30;20172;-82
2022/05/18 05:31:05;;;;;;;14.18;10.45;;;17.60;99.90;;;;;;4776563;30;20188;-82
2022/05/18 05:33:32;;;;;;;13.45;8.82;;;17.80;99.90;;;;;;4770547;30;20232;-82
2022/05/18 05:35:58;;;;;;;12.68;10.73;;;17.90;99.90;;;;;;4772161;30;20274;-82
2022/05/18 05:38:24;;;;;;;11.45;9.63;;;18.00;99.90;;;;;;4775260;29;20188;-82
2022/05/18 05:40:50;;;;;;;11.68;9.85;;;18.10;99.90;;;;;;4791478;29;20619;-82
2022/05/18 05:43:16;;;;;;;12.60;10.32;;;18.10;99.90;;;;;;4800459;29;20294;-83
2022/05/18 05:45:42;;;;;;;14.27;10.75;;;18.10;99.90;;;;;;4788480;29;20289;-82
2022/05/18 05:48:09;;;;;;;13.57;11.18;;;18.20;99.90;;;;;;4787539;29;20266;-84
2022/05/18 05:50:35;;;;;;;10.43;9.27;;;18.20;99.90;;;;;;4788897;29;20490;-82
2022/05/18 05:53:01;;;;;;;14.25;10.27;;;18.30;99.90;;;;;;4789049;29;20316;-82
2022/05/18 05:55:28;;;;;;;10.77;9.40;;;18.40;99.90;;;;;;4800063;29;20190;-83
2022/05/18 05:57:55;;;;;;;12.57;10.13;;;18.50;99.90;;;;;;4792282;29;20649;-83
2022/05/18 06:00:23;;;;;;;11.55;9.32;;;18.50;99.90;;;;;;4791752;30;20525;-84
2022/05/18 06:02:50;;;;;;;12.15;10.27;;;18.50;99.90;;;;;;4791983;29;20215;-81
2022/05/18 06:05:17;;;;;;;12.35;9.80;;;18.50;99.90;;;;;;4791759;29;20218;-81
2022/05/18 06:07:43;;;;;;;11.32;10.13;;;18.60;99.90;;;;;;4802827;29;20179;-81
2022/05/18 06:10:10;;;;;;;12.45;10.88;;;18.60;99.90;;;;;;4809874;29;20185;-80
2022/05/18 06:12:36;;;;;;;14.52;10.65;;;18.60;99.90;;;;;;4808308;29;20206;-82
2022/05/18 06:15:03;;;;;;;13.15;10.18;;;18.60;99.90;;;;;;4823203;29;20195;-82
2022/05/18 06:17:29;;;;;;;11.13;9.40;;;18.60;99.90;;;;;;4799966;29;20211;-81
2022/05/18 06:19:54;;;;;;;13.13;10.50;;;18.60;99.90;;;;;;4794807;29;20215;-82
2022/05/18 06:22:20;;;;;;;16.05;11.32;;;18.60;99.90;;;;;;4772707;30;20282;-83
2022/05/18 06:24:49;;;;;;;14.48;11.32;;;18.60;99.90;;;;;;4772649;30;20188;-82
2022/05/18 06:27:15;;;;;;;13.00;11.48;;;18.70;99.90;;;;;;4772425;30;20620;-83
2022/05/18 06:29:41;;;;;;;13.63;11.10;;;18.80;99.90;;;;;;4773511;30;20184;-81
2022/05/18 06:32:07;;;;;;;11.73;9.55;;;18.80;99.90;;;;;;4777565;30;20232;-84
2022/05/18 06:34:33;;;;;;;11.73;9.98;;;19.00;99.90;;;;;;4775730;30;20202;-83
2022/05/18 06:36:58;;;;;;;11.95;10.02;;;19.10;99.90;;;;;;4785079;29;20520;-83
2022/05/18 06:39:24;;;;;;;12.35;9.73;;;19.30;99.90;;;;;;4781801;30;20200;-82
2022/05/18 06:41:50;;;;;;;10.07;8.98;;;19.50;99.90;;;;;;4785980;30;20336;-84
2022/05/18 06:44:17;;;;;;;11.38;8.38;;;19.50;99.90;;;;;;4785624;29;20724;-83
2022/05/18 06:46:43;;;;;;;11.50;9.38;;;19.60;99.90;;;;;;4773166;30;20246;-84
2022/05/18 06:49:11;;;;;;;12.05;9.48;;;19.50;99.90;;;;;;4777111;30;20279;-84
2022/05/18 06:51:40;;;;;;;11.25;8.57;;;19.50;99.90;;;;;;4772765;30;20179;-84
2022/05/18 06:54:06;;;;;;;13.00;8.38;;;19.50;99.90;;;;;;4772708;30;20187;-82
2022/05/18 06:56:35;;;;;;;11.38;8.63;;;19.40;99.90;;;;;;4773410;30;20267;-84
2022/05/18 06:59:02;;;;;;;13.65;9.43;;;19.40;99.90;;;;;;4772044;30;20183;-83
2022/05/18 07:01:28;;;;;;;10.07;8.23;;;19.40;99.90;;;;;;4771860;30;20208;-83
2022/05/18 07:03:55;;;;;;;11.50;8.52;;;19.40;99.90;;;;;;4771541;30;20582;-83
2022/05/18 07:06:23;;;;;;;9.32;6.82;;;19.40;99.90;;;;;;4775356;29;20612;-83
2022/05/18 07:08:51;;;;;;;9.73;7.93;;;19.40;99.90;;;;;;4808539;29;20668;-81
2022/05/18 07:11:18;;;;;;;12.27;8.60;;;19.50;99.90;;;;;;4808772;29;20182;-82
2022/05/18 07:13:46;;;;;;;13.38;8.20;;;19.50;99.90;;;;;;4807472;29;20221;-83
2022/05/18 07:16:13;;;;;;;10.13;8.20;;;19.60;99.90;;;;;;4809080;29;20190;-81
2022/05/18 07:18:38;;;;;;;8.63;7.32;;;19.70;99.90;;;;;;4806844;29;20175;-83
2022/05/18 07:21:06;;;;;;;10.68;8.43;;;19.80;99.90;;;;;;4784284;29;20238;-83
2022/05/18 07:23:32;;;;;;;12.52;8.20;;;19.80;99.90;;;;;;4785705;30;20624;-82
2022/05/18 07:25:59;;;;;;;10.52;7.93;;;19.90;99.90;;;;;;4772552;30;20191;-83
2022/05/18 07:28:25;;;;;;;12.38;7.55;;;20.00;99.90;;;;;;4772602;30;20203;-83
2022/05/18 07:30:52;;;;;;;9.13;7.53;;;20.20;99.90;;;;;;4774635;29;20226;-83
2022/05/18 07:33:18;;;;;;;9.95;7.80;;;20.20;99.90;;;;;;4806574;29;20601;-83
2022/05/18 07:35:45;;;;;;;9.27;7.20;;;20.30;99.90;;;;;;4808462;29;20179;-84
2022/05/18 07:38:11;;;;;;;8.75;7.45;;;20.50;99.90;;;;;;4792093;29;20184;-82
2022/05/18 07:40:37;;;;;;;10.55;6.80;;;20.70;99.90;;;;;;4788005;29;20188;-82
2022/05/18 07:43:03;;;;;;;7.97;6.82;;;20.90;99.90;;;;;;4779694;29;20242;-84
2022/05/18 07:45:29;;;;;;;7.00;6.13;;;21.20;99.90;;;;;;4779131;30;20192;-82
2022/05/18 07:47:55;;;;;;;8.60;6.50;;;21.50;99.90;;;;;;4790108;29;20589;-84
2022/05/18 07:50:25;;;;;;;7.65;6.07;;;21.60;99.90;;;;;;4789025;30;20325;-83
2022/05/18 07:52:52;;;;;;;8.75;6.30;;;21.50;99.90;;;;;;4788136;29;20221;-82
2022/05/18 07:55:18;;;;;;;8.43;7.05;;;21.40;99.90;;;;;;4807937;29;20182;-85
2022/05/18 07:57:45;;;;;;;11.65;6.20;;;21.30;99.90;;;;;;4807003;29;20187;-83
2022/05/18 08:00:12;;;;;;;11.73;6.45;;;21.10;99.90;;;;;;4807892;29;20259;-83
2022/05/18 08:02:39;;;;;;;9.10;6.30;;;21.10;99.90;;;;;;4806893;29;20218;-82
2022/05/18 08:05:05;;;;;;;8.73;6.68;;;20.90;99.90;;;;;;4807864;29;20171;-84
2022/05/18 08:07:32;;;;;;;8.05;5.95;;;21.00;99.90;;;;;;4806893;29;20275;-84
2022/05/18 08:15:26;;;;;;;7.03;5.63;;;21.20;99.90;;;;;;4771337;30;20253;-84
2022/05/18 08:17:52;;;;;;;8.50;6.03;;;21.20;99.90;;;;;;4772380;30;20181;-82
2022/05/18 08:20:21;;;;;;;7.85;6.03;;;21.30;99.90;;;;;;4778491;29;20604;-85
2022/05/18 08:22:47;;;;;;;7.45;5.53;;;21.60;99.90;;;;;;4787897;29;20234;-83
2022/05/18 08:25:14;;;;;;;7.75;5.32;;;21.90;99.90;;;;;;4796919;29;20196;-84
2022/05/18 08:27:45;;;;;;;8.85;5.38;;;22.10;99.90;;;;;;4807700;29;20196;-82
2022/05/18 08:30:14;;;;;;;8.07;5.47;;;22.30;99.90;;;;;;4807706;29;20261;-85
2022/05/18 08:32:41;;;;;;;6.35;4.88;;;22.40;99.90;;;;;;4807316;29;20681;-85
2022/05/18 08:35:09;;;;;;;6.22;5.00;;;22.30;99.90;;;;;;4806363;29;20186;-85
2022/05/18 08:37:42;;;;;;;6.10;4.22;;;22.30;99.90;;;;;;4796275;29;20214;-85
2022/05/18 08:40:27;;;;;;;5.90;4.88;;;22.30;99.90;;;;;;4787477;30;20572;-84
2022/05/18 08:42:53;;;;;;;7.78;5.03;;;22.30;99.90;;;;;;4787337;30;20218;-84
2022/05/18 08:45:19;;;;;;;6.80;4.88;;;22.30;99.90;;;;;;4802808;29;20573;-83
2022/05/18 08:48:13;;;;;;;5.10;4.47;;;22.40;99.90;;;;;;4790124;29;20226;-83
2022/05/18 08:50:39;;;;;;;6.38;4.03;;;22.50;99.90;;;;;;4791457;29;20663;-86
2022/05/18 08:53:11;;;;;;;5.57;3.78;;;22.60;99.90;;;;;;4788927;30;20184;-83
2022/05/18 08:55:51;;;;;;;5.63;3.70;;;22.80;99.90;;;;;;4789021;30;20282;-82
2022/05/18 08:58:30;;;;;;;5.18;4.25;;;23.00;99.90;;;;;;4787989;30;20186;-83
2022/05/18 09:01:02;;;;;;;4.85;4.13;;;23.00;99.90;;;;;;4790622;29;20186;-83
2022/05/18 09:03:47;;;;;;;5.45;4.78;;;23.10;99.90;;;;;;4789073;30;20188;-82
2022/05/18 09:06:28;;;;;;;4.95;3.45;;;23.10;99.90;;;;;;4789036;29;20182;-83
2022/05/18 09:11:48;;;;;;;6.38;3.55;;;23.10;99.90;;;;;;4807381;29;20213;-83
2022/05/18 09:14:17;;;;;;;3.38;3.08;;;23.10;99.90;;;;;;4805487;29;20540;-84
2022/05/18 09:17:06;;;;;;;6.45;3.40;;;23.20;99.90;;;;;;4800835;29;20527;-83
2022/05/18 09:19:56;;;;;;;5.57;3.45;;;23.40;99.90;;;;;;4796235;29;20191;-85
2022/05/18 09:22:48;;;;;;;4.05;2.97;;;23.70;99.90;;;;;;4778678;29;20219;-83
2022/05/18 09:25:44;;;;;;;4.28;3.25;;;23.90;99.90;;;;;;4805367;29;20273;-83
2022/05/18 09:28:28;;;;;;;5.97;3.20;;;24.20;99.90;;;;;;4805949;29;20246;-87
2022/05/18 09:30:59;;;;;;;4.10;2.80;;;24.40;99.90;;;;;;4789141;29;20649;-85
2022/05/18 09:33:28;;;;;;;4.47;2.90;;;24.40;99.70;;;;;;4792267;30;20571;-83
2022/05/18 09:36:30;;;;;;;7.30;3.30;;;24.30;98.80;;;;;;4801219;29;20183;-83
2022/05/18 09:39:10;;;;;;;4.32;3.67;;;24.10;99.90;;;;;;4782274;30;20196;-84
2022/05/18 09:41:49;;;;;;;5.05;3.65;;;24.20;99.90;;;;;;4774602;30;20745;-84
2022/05/18 09:44:27;;;;;;;4.72;3.13;;;24.40;99.90;;;;;;4773091;30;20647;-84
2022/05/18 09:46:54;;;;;;;8.55;4.20;;;24.60;99.90;;;;;;4788119;29;20616;-84
2022/05/18 09:49:36;;;;;;;6.20;4.13;;;24.70;99.90;;;;;;4798190;29;20194;-84
2022/05/18 09:52:04;;;;;;;5.60;3.67;;;24.70;99.90;;;;;;4792234;30;20196;-83
2022/05/18 09:54:31;;;;;;;7.22;4.10;;;24.50;99.90;;;;;;4777326;30;20655;-84
2022/05/18 09:57:10;;;;;;;7.10;4.07;;;24.40;99.90;;;;;;4796875;29;20183;-82
2022/05/18 09:59:42;;;;;;;7.15;4.38;;;24.50;99.90;;;;;;4809959;29;20223;-87
2022/05/18 10:07:53;;;;;;;5.40;3.85;;;24.90;99.90;;;;;;4803377;29;20242;-83
2022/05/18 10:10:38;;;;;;;5.50;3.63;;;25.00;99.90;;;;;;4809017;29;20565;-84
2022/05/18 10:13:29;;;;;;;8.30;3.58;;;25.20;99.90;;;;;;4792052;29;20187;-84
2022/05/18 10:16:33;;;;;;;5.88;4.03;;;25.40;99.90;;;;;;4790642;30;20184;-84
2022/05/18 10:19:01;;;;;;;6.95;3.47;;;25.20;99.90;;;;;;4794046;29;20282;-85
2022/05/18 10:21:34;;;;;;;4.93;3.55;;;25.00;99.90;;;;;;4783894;29;20739;-83
2022/05/18 10:24:22;;;;;;;5.45;3.50;;;25.10;99.90;;;;;;4773162;30;20192;-82
2022/05/18 10:27:06;;;;;;;5.22;3.72;;;25.30;99.70;;;;;;4772647;30;20184;-84
2022/05/18 10:29:32;;;;;;;7.63;3.30;;;25.50;99.90;;;;;;4773671;30;20176;-84
2022/05/18 10:32:21;;;;;;;4.30;2.90;;;25.70;99.90;;;;;;4779872;30;20330;-83
2022/05/18 10:34:50;;;;;;;3.63;3.30;;;26.00;99.90;;;;;;4791031;30;20179;-85
2022/05/18 10:37:36;;;;;;;6.70;3.78;;;26.20;99.80;;;;;;4784040;29;20205;-84
2022/05/18 10:40:10;;;;;;;3.50;2.95;;;26.40;98.80;;;;;;4801373;29;20183;-82
2022/05/18 10:42:51;;;;;;;4.30;3.38;;;26.40;98.90;;;;;;4791245;29;20206;-83
2022/05/18 10:45:26;;;;;;;4.32;3.30;;;26.50;98.20;;;;;;4788509;30;20244;-83
2022/05/18 10:47:55;;;;;;;4.13;3.17;;;26.60;98.10;;;;;;4788337;29;20191;-84
2022/05/18 10:50:39;;;;;;;6.53;3.63;;;26.60;97.90;;;;;;4792880;29;20552;-84
2022/05/18 10:53:13;;;;;;;6.30;3.25;;;26.70;98.70;;;;;;4809094;29;20186;-85
2022/05/18 10:55:58;;;;;;;6.55;3.67;;;26.90;98.30;;;;;;4803955;29;20328;-84
2022/05/18 10:58:35;;;;;;;5.03;3.08;;;26.90;97.90;;;;;;4790860;29;20266;-83
2022/05/18 11:01:26;;;;;;;4.45;3.13;;;27.00;97.70;;;;;;4772893;30;20179;-82
2022/05/18 11:03:57;;;;;;;4.55;3.20;;;26.90;96.90;;;;;;4771541;30;20233;-82
2022/05/18 11:06:41;;;;;;;6.22;3.05;;;26.90;97.30;;;;;;4788002;29;20184;-82
2022/05/18 11:09:18;;;;;;;5.18;2.97;;;27.00;97.70;;;;;;4807516;29;20630;-84
2022/05/18 11:11:52;;;;;;;4.47;2.70;;;27.20;96.40;;;;;;4778199;30;20198;-83
2022/05/18 11:14:29;;;;;;;3.90;3.03;;;27.00;97.10;;;;;;4789862;30;20175;-84
2022/05/18 11:17:19;;;;;;;5.80;2.80;;;26.70;97.30;;;;;;4786926;30;20628;-83
2022/05/18 11:20:02;;;;;;;3.60;2.90;;;26.60;97.20;;;;;;4783255;29;20241;-83
2022/05/18 11:22:53;;;;;;;4.60;2.80;;;26.70;98.20;;;;;;4780641;30;20261;-83
2022/05/18 11:25:58;;;;;;;4.35;2.92;;;26.70;97.10;;;;;;4791033;29;20210;-83
2022/05/18 11:28:37;;;;;;;6.30;3.30;;;26.60;96.80;;;;;;4790229;30;20171;-84
2022/05/18 11:31:03;;;;;;;6.03;3.00;;;26.40;97.00;;;;;;4788283;29;20176;-83
2022/05/18 11:33:38;;;;;;;5.25;3.38;;;26.60;98.20;;;;;;4786256;29;20235;-83
2022/05/18 11:36:10;;;;;;;4.30;2.90;;;26.70;96.90;;;;;;4781176;29;20192;-83
2022/05/18 11:38:44;;;;;;;6.60;2.80;;;26.50;97.50;;;;;;4796411;29;20206;-83
2022/05/18 11:41:33;;;;;;;4.38;2.30;;;26.70;96.60;;;;;;4788817;30;20190;-82
2022/05/18 11:44:16;;;;;;;2.88;2.08;;;27.00;97.40;;;;;;4781317;30;20176;-84
2022/05/18 11:47:07;;;;;;;3.33;2.00;;;27.10;95.20;;;;;;4788132;30;20641;-84
2022/05/18 11:49:54;;;;;;;6.40;2.17;;;26.90;94.60;;;;;;4790248;30;20195;-84
2022/05/18 11:52:34;;;;;;;2.42;2.10;;;27.10;95.80;;;;;;4789477;29;20170;-85
2022/05/18 11:55:09;;;;;;;3.75;1.90;;;27.20;95.20;;;;;;4771479;30;20219;-85
2022/05/18 11:57:59;;;;;;;4.00;2.05;;;27.60;94.40;;;;;;4772275;29;20555;-83
2022/05/18 12:03:31;;;;;;;3.85;2.28;;;27.90;94.80;;;;;;4772467;30;20273;-84
2022/05/18 12:06:26;;;;;;;3.08;2.40;;;28.20;94.20;;;;;;4777313;29;20203;-85
2022/05/18 12:08:55;;;;;;;3.80;2.45;;;28.20;93.80;;;;;;4799830;29;20199;-83
2022/05/18 12:11:39;;;;;;;4.15;2.33;;;28.40;95.00;;;;;;4771410;30;20624;-83
2022/05/18 12:14:24;;;;;;;2.92;2.33;;;28.20;93.70;;;;;;4771803;30;20180;-84
2022/05/18 12:17:00;;;;;;;4.18;3.17;;;27.90;94.10;;;;;;4772122;30;20167;-84
2022/05/18 12:19:47;;;;;;;3.90;2.28;;;27.50;94.60;;;;;;4771642;29;20628;-82
2022/05/18 12:22:19;;;;;;;3.53;2.50;;;27.40;94.70;;;;;;4777892;30;20222;-82
2022/05/18 12:24:46;;;;;;;3.70;2.83;;;27.60;95.10;;;;;;4789794;29;20187;-83
2022/05/18 12:27:13;;;;;;;6.78;2.40;;;27.70;95.40;;;;;;4789370;30;20180;-84
2022/05/18 12:29:40;;;;;;;5.25;2.65;;;27.90;95.40;;;;;;4787546;29;20188;-84
2022/05/18 12:32:08;;;;;;;5.13;2.58;;;27.70;94.80;;;;;;4782366;29;20227;-85
2022/05/18 12:34:33;;;;;;;3.80;2.50;;;27.50;94.50;;;;;;4771468;30;20184;-83
2022/05/18 12:37:17;;;;;;;3.90;2.53;;;27.20;95.10;;;;;;4799290;29;20187;-83
2022/05/18 12:39:47;;;;;;;4.93;2.78;;;27.20;95.20;;;;;;4786319;29;20232;-86
2022/05/18 12:42:22;;;;;;;5.55;2.42;;;27.40;95.30;;;;;;4788015;30;20207;-84
2022/05/18 12:44:55;;;;;;;4.07;2.75;;;27.70;94.90;;;;;;4794712;29;20193;-84
2022/05/18 12:47:28;;;;;;;4.93;2.38;;;27.70;94.00;;;;;;4782369;29;20183;-85
2022/05/18 12:50:15;;;;;;;3.83;2.58;;;27.70;94.10;;;;;;4771266;29;20654;-85
2022/05/18 12:52:50;;;;;;;4.70;2.33;;;27.70;94.20;;;;;;4782572;29;20240;-84
2022/05/18 12:55:22;;;;;;;3.88;2.38;;;27.70;95.10;;;;;;4788814;30;20201;-84
2022/05/18 12:57:54;;;;;;;3.13;2.20;;;27.80;94.80;;;;;;4795822;29;20257;-84
2022/05/18 13:00:23;;;;;;;6.45;2.78;;;28.10;94.80;;;;;;4789287;29;20183;-84
2022/05/18 13:03:09;;;;;;;3.08;2.17;;;28.40;94.50;;;;;;4805288;29;20214;-84
2022/05/18 13:05:55;;;;;;;2.42;1.90;;;28.70;93.10;;;;;;4777494;29;20757;-85
2022/05/18 13:08:40;;;;;;;2.90;2.22;;;28.90;94.60;;;;;;4791668;29;20201;-84
2022/05/18 13:11:09;;;;;;;3.38;2.15;;;29.00;93.80;;;;;;4789152;30;20180;-84
2022/05/18 13:14:00;;;;;;;2.80;2.17;;;29.10;93.20;;;;;;4795786;29;20650;-83
2022/05/18 13:16:37;;;;;;;3.50;2.33;;;29.20;93.20;;;;;;4798475;29;20241;-85
2022/05/18 13:19:24;;;;;;;3.05;2.30;;;29.10;92.10;;;;;;4773035;30;20183;-84
2022/05/18 13:21:59;;;;;;;8.15;2.40;;;29.00;91.40;;;;;;4770258;30;20266;-84